sensor_id;sensor_type;location;lat;lon;timestamp;P1;durP1;ratioP1;P2;durP2;ratioP2
64075;SDS011;50327;51.328;12.324;2022-10-31T00:01:49;19.27;;;9.65;;
64075;SDS011;50327;51.328;12.324;2022-10-31T00:04:14;24.67;;;10.85;;
64075;SDS011;50327;51.328;12.324;2022-10-31T00:06:39;33.80;;;11.23;;
64075;SDS011;50327;51.328;12.324;2022-10-31T00:09:04;23.05;;;10.13;;
64075;SDS011;50327;51.328;12.324;2022-10-31T00:11:30;24.00;;;9.90;;
64075;SDS011;50327;51.328;12.324;2022-10-31T00:13:56;42.15;;;10.52;;
64075;SDS011;50327;51.328;12.324;2022-10-31T00:16:23;21.58;;;10.13;;
64075;SDS011;50327;51.328;12.324;2022-10-31T00:18:49;28.38;;;9.50;;
64075;SDS011;50327;51.328;12.324;2022-10-31T00:21:14;21.75;;;9.82;;
64075;SDS011;50327;51.328;12.324;2022-10-31T00:23:39;30.35;;;9.32;;
64075;SDS011;50327;51.328;12.324;2022-10-31T00:26:05;28.10;;;9.13;;
64075;SDS011;50327;51.328;12.324;2022-10-31T00:28:31;31.02;;;10.70;;
64075;SDS011;50327;51.328;12.324;2022-10-31T00:31:03;24.05;;;9.15;;
64075;SDS011;50327;51.328;12.324;2022-10-31T00:33:29;19.58;;;8.05;;
64075;SDS011;50327;51.328;12.324;2022-10-31T00:35:54;28.38;;;8.80;;
64075;SDS011;50327;51.328;12.324;2022-10-31T00:38:20;25.10;;;8.02;;
64075;SDS011;50327;51.328;12.324;2022-10-31T00:40:45;20.52;;;8.20;;
64075;SDS011;50327;51.328;12.324;2022-10-31T00:43:10;23.17;;;7.68;;
64075;SDS011;50327;51.328;12.324;2022-10-31T00:45:36;19.75;;;7.18;;
64075;SDS011;50327;51.328;12.324;2022-10-31T00:48:01;16.10;;;7.03;;
64075;SDS011;50327;51.328;12.324;2022-10-31T00:50:26;17.42;;;7.38;;
64075;SDS011;50327;51.328;12.324;2022-10-31T00:52:51;18.55;;;7.35;;
64075;SDS011;50327;51.328;12.324;2022-10-31T00:55:16;18.88;;;7.55;;
64075;SDS011;50327;51.328;12.324;2022-10-31T00:57:42;13.48;;;6.85;;
64075;SDS011;50327;51.328;12.324;2022-10-31T01:00:07;21.73;;;7.73;;
64075;SDS011;50327;51.328;12.324;2022-10-31T01:02:32;19.38;;;7.20;;
64075;SDS011;50327;51.328;12.324;2022-10-31T01:04:57;24.60;;;6.82;;
64075;SDS011;50327;51.328;12.324;2022-10-31T01:07:23;21.52;;;7.45;;
64075;SDS011;50327;51.328;12.324;2022-10-31T01:09:48;22.15;;;6.80;;
64075;SDS011;50327;51.328;12.324;2022-10-31T01:12:13;18.02;;;6.97;;
64075;SDS011;50327;51.328;12.324;2022-10-31T01:14:42;17.65;;;7.30;;
64075;SDS011;50327;51.328;12.324;2022-10-31T01:17:07;17.80;;;6.93;;
64075;SDS011;50327;51.328;12.324;2022-10-31T01:19:32;16.88;;;6.63;;
64075;SDS011;50327;51.328;12.324;2022-10-31T01:21:57;18.48;;;8.10;;
64075;SDS011;50327;51.328;12.324;2022-10-31T01:24:23;13.95;;;6.63;;
64075;SDS011;50327;51.328;12.324;2022-10-31T01:26:48;21.05;;;8.23;;
64075;SDS011;50327;51.328;12.324;2022-10-31T01:29:13;21.98;;;9.93;;
64075;SDS011;50327;51.328;12.324;2022-10-31T01:31:39;28.15;;;8.48;;
64075;SDS011;50327;51.328;12.324;2022-10-31T01:34:04;20.25;;;7.57;;
64075;SDS011;50327;51.328;12.324;2022-10-31T01:36:38;18.73;;;8.10;;
64075;SDS011;50327;51.328;12.324;2022-10-31T01:39:05;27.98;;;7.43;;
64075;SDS011;50327;51.328;12.324;2022-10-31T01:41:31;22.23;;;7.88;;
64075;SDS011;50327;51.328;12.324;2022-10-31T01:43:59;17.10;;;6.65;;
64075;SDS011;50327;51.328;12.324;2022-10-31T01:46:25;24.15;;;7.38;;
64075;SDS011;50327;51.328;12.324;2022-10-31T01:48:52;22.25;;;8.13;;
64075;SDS011;50327;51.328;12.324;2022-10-31T01:51:18;17.98;;;6.28;;
64075;SDS011;50327;51.328;12.324;2022-10-31T01:53:44;22.42;;;7.38;;
64075;SDS011;50327;51.328;12.324;2022-10-31T01:56:10;18.38;;;7.63;;
64075;SDS011;50327;51.328;12.324;2022-10-31T01:58:36;17.27;;;8.00;;
64075;SDS011;50327;51.328;12.324;2022-10-31T02:01:02;20.05;;;7.85;;
64075;SDS011;50327;51.328;12.324;2022-10-31T02:03:28;16.73;;;6.57;;
64075;SDS011;50327;51.328;12.324;2022-10-31T02:05:54;17.45;;;6.60;;
64075;SDS011;50327;51.328;12.324;2022-10-31T02:08:23;23.70;;;7.25;;
64075;SDS011;50327;51.328;12.324;2022-10-31T02:10:50;18.65;;;7.10;;
64075;SDS011;50327;51.328;12.324;2022-10-31T02:13:15;16.40;;;7.43;;
64075;SDS011;50327;51.328;12.324;2022-10-31T02:15:41;13.77;;;7.32;;
64075;SDS011;50327;51.328;12.324;2022-10-31T02:18:07;29.80;;;7.93;;
64075;SDS011;50327;51.328;12.324;2022-10-31T02:20:42;29.13;;;9.00;;
64075;SDS011;50327;51.328;12.324;2022-10-31T02:23:15;24.58;;;7.60;;
64075;SDS011;50327;51.328;12.324;2022-10-31T02:25:46;19.00;;;7.30;;
64075;SDS011;50327;51.328;12.324;2022-10-31T02:28:33;17.85;;;6.65;;
64075;SDS011;50327;51.328;12.324;2022-10-31T02:33:45;15.23;;;7.45;;
64075;SDS011;50327;51.328;12.324;2022-10-31T02:41:31;20.80;;;7.77;;
64075;SDS011;50327;51.328;12.324;2022-10-31T02:44:00;15.23;;;7.07;;
64075;SDS011;50327;51.328;12.324;2022-10-31T02:49:09;29.10;;;8.00;;
64075;SDS011;50327;51.328;12.324;2022-10-31T02:51:36;18.17;;;8.05;;
64075;SDS011;50327;51.328;12.324;2022-10-31T02:54:01;28.42;;;9.00;;
64075;SDS011;50327;51.328;12.324;2022-10-31T02:56:27;20.30;;;7.47;;
64075;SDS011;50327;51.328;12.324;2022-10-31T02:58:53;20.08;;;8.18;;
64075;SDS011;50327;51.328;12.324;2022-10-31T03:01:31;21.60;;;8.73;;
64075;SDS011;50327;51.328;12.324;2022-10-31T03:06:45;25.85;;;7.85;;
64075;SDS011;50327;51.328;12.324;2022-10-31T03:14:35;20.63;;;7.95;;
64075;SDS011;50327;51.328;12.324;2022-10-31T03:17:04;15.82;;;7.32;;
64075;SDS011;50327;51.328;12.324;2022-10-31T03:19:42;22.60;;;7.32;;
64075;SDS011;50327;51.328;12.324;2022-10-31T03:24:37;21.40;;;9.13;;
64075;SDS011;50327;51.328;12.324;2022-10-31T03:27:03;22.98;;;8.85;;
64075;SDS011;50327;51.328;12.324;2022-10-31T03:29:31;18.65;;;8.35;;
64075;SDS011;50327;51.328;12.324;2022-10-31T03:34:29;18.70;;;8.07;;
64075;SDS011;50327;51.328;12.324;2022-10-31T03:36:55;27.92;;;9.45;;
64075;SDS011;50327;51.328;12.324;2022-10-31T03:39:22;16.48;;;7.57;;
64075;SDS011;50327;51.328;12.324;2022-10-31T03:42:21;16.65;;;7.38;;
64075;SDS011;50327;51.328;12.324;2022-10-31T03:44:40;16.95;;;7.32;;
64075;SDS011;50327;51.328;12.324;2022-10-31T03:47:07;16.77;;;7.70;;
64075;SDS011;50327;51.328;12.324;2022-10-31T03:49:32;25.45;;;7.55;;
64075;SDS011;50327;51.328;12.324;2022-10-31T03:52:01;21.00;;;7.45;;
64075;SDS011;50327;51.328;12.324;2022-10-31T03:54:30;25.67;;;8.32;;
64075;SDS011;50327;51.328;12.324;2022-10-31T03:56:57;20.58;;;8.25;;
64075;SDS011;50327;51.328;12.324;2022-10-31T03:59:28;19.88;;;8.32;;
64075;SDS011;50327;51.328;12.324;2022-10-31T04:01:57;22.75;;;8.25;;
64075;SDS011;50327;51.328;12.324;2022-10-31T04:04:22;14.95;;;7.57;;
64075;SDS011;50327;51.328;12.324;2022-10-31T04:06:48;14.18;;;7.63;;
64075;SDS011;50327;51.328;12.324;2022-10-31T04:09:15;18.00;;;8.40;;
64075;SDS011;50327;51.328;12.324;2022-10-31T04:11:42;17.45;;;8.40;;
64075;SDS011;50327;51.328;12.324;2022-10-31T04:14:09;21.00;;;8.75;;
64075;SDS011;50327;51.328;12.324;2022-10-31T04:16:36;17.40;;;7.35;;
64075;SDS011;50327;51.328;12.324;2022-10-31T04:19:01;20.40;;;8.93;;
64075;SDS011;50327;51.328;12.324;2022-10-31T04:21:29;24.83;;;7.80;;
64075;SDS011;50327;51.328;12.324;2022-10-31T04:23:55;16.70;;;8.13;;
64075;SDS011;50327;51.328;12.324;2022-10-31T04:26:20;19.33;;;7.72;;
64075;SDS011;50327;51.328;12.324;2022-10-31T04:28:45;15.32;;;7.47;;
64075;SDS011;50327;51.328;12.324;2022-10-31T04:31:11;17.17;;;7.68;;
64075;SDS011;50327;51.328;12.324;2022-10-31T04:33:36;18.63;;;8.02;;
64075;SDS011;50327;51.328;12.324;2022-10-31T04:36:02;20.65;;;7.78;;
64075;SDS011;50327;51.328;12.324;2022-10-31T04:38:27;19.42;;;8.30;;
64075;SDS011;50327;51.328;12.324;2022-10-31T04:40:52;22.23;;;8.30;;
64075;SDS011;50327;51.328;12.324;2022-10-31T04:43:17;22.00;;;8.48;;
64075;SDS011;50327;51.328;12.324;2022-10-31T04:45:43;26.17;;;8.52;;
64075;SDS011;50327;51.328;12.324;2022-10-31T04:48:08;20.38;;;8.27;;
64075;SDS011;50327;51.328;12.324;2022-10-31T04:50:33;15.80;;;7.17;;
64075;SDS011;50327;51.328;12.324;2022-10-31T04:52:58;21.08;;;8.88;;
64075;SDS011;50327;51.328;12.324;2022-10-31T04:55:23;19.85;;;7.95;;
64075;SDS011;50327;51.328;12.324;2022-10-31T04:57:49;14.40;;;7.72;;
64075;SDS011;50327;51.328;12.324;2022-10-31T05:00:16;19.30;;;8.40;;
64075;SDS011;50327;51.328;12.324;2022-10-31T05:02:45;19.15;;;8.10;;
64075;SDS011;50327;51.328;12.324;2022-10-31T05:05:11;17.42;;;7.80;;
64075;SDS011;50327;51.328;12.324;2022-10-31T05:07:43;18.60;;;7.95;;
64075;SDS011;50327;51.328;12.324;2022-10-31T05:10:09;20.75;;;8.57;;
64075;SDS011;50327;51.328;12.324;2022-10-31T05:12:35;18.85;;;8.40;;
64075;SDS011;50327;51.328;12.324;2022-10-31T05:15:00;19.15;;;8.10;;
64075;SDS011;50327;51.328;12.324;2022-10-31T05:17:25;16.42;;;8.20;;
64075;SDS011;50327;51.328;12.324;2022-10-31T05:19:50;20.80;;;7.72;;
64075;SDS011;50327;51.328;12.324;2022-10-31T05:22:16;20.52;;;9.10;;
64075;SDS011;50327;51.328;12.324;2022-10-31T05:24:41;24.95;;;8.82;;
64075;SDS011;50327;51.328;12.324;2022-10-31T05:27:06;31.33;;;9.02;;
64075;SDS011;50327;51.328;12.324;2022-10-31T05:29:31;18.13;;;7.93;;
64075;SDS011;50327;51.328;12.324;2022-10-31T05:31:58;25.67;;;8.88;;
64075;SDS011;50327;51.328;12.324;2022-10-31T05:34:23;22.17;;;9.20;;
64075;SDS011;50327;51.328;12.324;2022-10-31T05:36:49;21.20;;;8.93;;
64075;SDS011;50327;51.328;12.324;2022-10-31T05:39:14;15.90;;;8.82;;
64075;SDS011;50327;51.328;12.324;2022-10-31T05:41:39;25.88;;;9.15;;
64075;SDS011;50327;51.328;12.324;2022-10-31T05:44:04;26.95;;;9.50;;
64075;SDS011;50327;51.328;12.324;2022-10-31T05:46:29;26.40;;;9.57;;
64075;SDS011;50327;51.328;12.324;2022-10-31T05:48:55;17.25;;;7.80;;
64075;SDS011;50327;51.328;12.324;2022-10-31T05:51:20;16.63;;;8.82;;
64075;SDS011;50327;51.328;12.324;2022-10-31T05:53:45;25.13;;;8.52;;
64075;SDS011;50327;51.328;12.324;2022-10-31T05:56:11;27.30;;;8.75;;
64075;SDS011;50327;51.328;12.324;2022-10-31T05:58:36;16.98;;;8.50;;
64075;SDS011;50327;51.328;12.324;2022-10-31T06:01:01;22.20;;;8.02;;
64075;SDS011;50327;51.328;12.324;2022-10-31T06:03:26;17.63;;;8.02;;
64075;SDS011;50327;51.328;12.324;2022-10-31T06:05:52;16.55;;;7.25;;
64075;SDS011;50327;51.328;12.324;2022-10-31T06:08:17;28.35;;;8.43;;
64075;SDS011;50327;51.328;12.324;2022-10-31T06:10:42;15.95;;;8.05;;
64075;SDS011;50327;51.328;12.324;2022-10-31T06:13:08;20.98;;;8.68;;
64075;SDS011;50327;51.328;12.324;2022-10-31T06:15:33;17.60;;;7.60;;
64075;SDS011;50327;51.328;12.324;2022-10-31T06:17:59;24.25;;;7.85;;
64075;SDS011;50327;51.328;12.324;2022-10-31T06:20:24;21.58;;;8.57;;
64075;SDS011;50327;51.328;12.324;2022-10-31T06:22:49;21.55;;;8.45;;
64075;SDS011;50327;51.328;12.324;2022-10-31T06:25:14;17.23;;;8.43;;
64075;SDS011;50327;51.328;12.324;2022-10-31T06:27:40;22.77;;;8.48;;
64075;SDS011;50327;51.328;12.324;2022-10-31T06:30:05;25.98;;;9.65;;
64075;SDS011;50327;51.328;12.324;2022-10-31T06:32:30;19.35;;;7.93;;
64075;SDS011;50327;51.328;12.324;2022-10-31T06:34:56;20.45;;;8.73;;
64075;SDS011;50327;51.328;12.324;2022-10-31T06:37:21;17.92;;;7.95;;
64075;SDS011;50327;51.328;12.324;2022-10-31T06:39:46;16.08;;;7.40;;
64075;SDS011;50327;51.328;12.324;2022-10-31T06:42:11;18.63;;;9.05;;
64075;SDS011;50327;51.328;12.324;2022-10-31T06:44:36;15.50;;;7.43;;
64075;SDS011;50327;51.328;12.324;2022-10-31T06:47:01;19.35;;;7.72;;
64075;SDS011;50327;51.328;12.324;2022-10-31T06:49:27;27.35;;;8.00;;
64075;SDS011;50327;51.328;12.324;2022-10-31T06:51:52;24.55;;;8.57;;
64075;SDS011;50327;51.328;12.324;2022-10-31T06:54:17;21.00;;;8.25;;
64075;SDS011;50327;51.328;12.324;2022-10-31T06:56:45;14.75;;;9.27;;
64075;SDS011;50327;51.328;12.324;2022-10-31T06:59:10;25.38;;;8.95;;
64075;SDS011;50327;51.328;12.324;2022-10-31T07:01:35;18.38;;;8.63;;
64075;SDS011;50327;51.328;12.324;2022-10-31T07:04:01;20.63;;;9.80;;
64075;SDS011;50327;51.328;12.324;2022-10-31T07:06:26;23.65;;;10.10;;
64075;SDS011;50327;51.328;12.324;2022-10-31T07:08:51;19.45;;;9.05;;
64075;SDS011;50327;51.328;12.324;2022-10-31T07:11:16;22.63;;;8.40;;
64075;SDS011;50327;51.328;12.324;2022-10-31T07:13:42;29.50;;;9.65;;
64075;SDS011;50327;51.328;12.324;2022-10-31T07:16:07;14.20;;;7.93;;
64075;SDS011;50327;51.328;12.324;2022-10-31T07:18:33;16.15;;;7.93;;
64075;SDS011;50327;51.328;12.324;2022-10-31T07:20:58;16.33;;;7.70;;
64075;SDS011;50327;51.328;12.324;2022-10-31T07:23:23;19.50;;;8.45;;
64075;SDS011;50327;51.328;12.324;2022-10-31T07:25:48;14.52;;;7.05;;
64075;SDS011;50327;51.328;12.324;2022-10-31T07:28:19;13.45;;;7.45;;
64075;SDS011;50327;51.328;12.324;2022-10-31T07:30:48;17.57;;;7.43;;
64075;SDS011;50327;51.328;12.324;2022-10-31T07:33:17;19.55;;;7.72;;
64075;SDS011;50327;51.328;12.324;2022-10-31T07:35:42;15.80;;;7.88;;
64075;SDS011;50327;51.328;12.324;2022-10-31T07:38:11;16.13;;;7.40;;
64075;SDS011;50327;51.328;12.324;2022-10-31T07:40:37;16.67;;;8.05;;
64075;SDS011;50327;51.328;12.324;2022-10-31T07:43:02;21.73;;;8.85;;
64075;SDS011;50327;51.328;12.324;2022-10-31T07:45:27;18.95;;;8.05;;
64075;SDS011;50327;51.328;12.324;2022-10-31T07:47:52;24.05;;;7.45;;
64075;SDS011;50327;51.328;12.324;2022-10-31T07:50:19;15.77;;;7.57;;
64075;SDS011;50327;51.328;12.324;2022-10-31T07:52:44;19.40;;;8.55;;
64075;SDS011;50327;51.328;12.324;2022-10-31T07:55:10;21.60;;;7.82;;
64075;SDS011;50327;51.328;12.324;2022-10-31T07:57:35;17.73;;;7.45;;
64075;SDS011;50327;51.328;12.324;2022-10-31T08:00:04;15.82;;;7.28;;
64075;SDS011;50327;51.328;12.324;2022-10-31T08:02:30;20.50;;;7.90;;
64075;SDS011;50327;51.328;12.324;2022-10-31T08:04:55;23.27;;;9.20;;
64075;SDS011;50327;51.328;12.324;2022-10-31T08:07:20;19.10;;;6.97;;
64075;SDS011;50327;51.328;12.324;2022-10-31T08:09:45;19.30;;;7.97;;
64075;SDS011;50327;51.328;12.324;2022-10-31T08:12:10;21.17;;;7.40;;
64075;SDS011;50327;51.328;12.324;2022-10-31T08:14:36;22.63;;;8.13;;
64075;SDS011;50327;51.328;12.324;2022-10-31T08:17:01;22.70;;;7.80;;
64075;SDS011;50327;51.328;12.324;2022-10-31T08:19:26;17.70;;;8.77;;
64075;SDS011;50327;51.328;12.324;2022-10-31T08:21:52;20.67;;;7.57;;
64075;SDS011;50327;51.328;12.324;2022-10-31T08:24:17;16.45;;;7.50;;
64075;SDS011;50327;51.328;12.324;2022-10-31T08:26:43;23.95;;;8.40;;
64075;SDS011;50327;51.328;12.324;2022-10-31T08:29:08;18.50;;;9.15;;
64075;SDS011;50327;51.328;12.324;2022-10-31T08:31:33;27.95;;;9.38;;
64075;SDS011;50327;51.328;12.324;2022-10-31T08:33:58;23.80;;;8.18;;
64075;SDS011;50327;51.328;12.324;2022-10-31T08:36:24;19.80;;;8.20;;
64075;SDS011;50327;51.328;12.324;2022-10-31T08:38:49;27.15;;;10.02;;
64075;SDS011;50327;51.328;12.324;2022-10-31T08:41:14;21.23;;;8.07;;
64075;SDS011;50327;51.328;12.324;2022-10-31T08:43:39;22.27;;;7.82;;
64075;SDS011;50327;51.328;12.324;2022-10-31T08:46:05;29.55;;;9.75;;
64075;SDS011;50327;51.328;12.324;2022-10-31T08:48:30;18.23;;;8.18;;
64075;SDS011;50327;51.328;12.324;2022-10-31T08:50:57;18.73;;;7.88;;
64075;SDS011;50327;51.328;12.324;2022-10-31T08:53:25;29.58;;;7.80;;
64075;SDS011;50327;51.328;12.324;2022-10-31T08:55:53;24.27;;;8.02;;
64075;SDS011;50327;51.328;12.324;2022-10-31T08:58:19;15.18;;;8.25;;
64075;SDS011;50327;51.328;12.324;2022-10-31T09:00:45;29.52;;;10.43;;
64075;SDS011;50327;51.328;12.324;2022-10-31T09:03:20;29.67;;;11.27;;
64075;SDS011;50327;51.328;12.324;2022-10-31T09:05:46;31.92;;;10.40;;
64075;SDS011;50327;51.328;12.324;2022-10-31T09:08:11;31.15;;;11.10;;
64075;SDS011;50327;51.328;12.324;2022-10-31T09:10:36;31.42;;;12.15;;
64075;SDS011;50327;51.328;12.324;2022-10-31T09:13:04;29.83;;;12.13;;
64075;SDS011;50327;51.328;12.324;2022-10-31T09:15:31;29.55;;;11.95;;
64075;SDS011;50327;51.328;12.324;2022-10-31T09:17:56;40.30;;;14.07;;
64075;SDS011;50327;51.328;12.324;2022-10-31T09:20:22;37.72;;;13.88;;
64075;SDS011;50327;51.328;12.324;2022-10-31T09:22:47;33.17;;;12.77;;
64075;SDS011;50327;51.328;12.324;2022-10-31T09:25:12;34.17;;;14.57;;
64075;SDS011;50327;51.328;12.324;2022-10-31T09:27:37;36.08;;;15.73;;
64075;SDS011;50327;51.328;12.324;2022-10-31T09:30:03;40.20;;;14.00;;
64075;SDS011;50327;51.328;12.324;2022-10-31T09:32:28;40.15;;;16.33;;
64075;SDS011;50327;51.328;12.324;2022-10-31T09:34:54;43.05;;;15.65;;
64075;SDS011;50327;51.328;12.324;2022-10-31T09:37:19;56.53;;;19.10;;
64075;SDS011;50327;51.328;12.324;2022-10-31T09:39:44;52.83;;;19.33;;
64075;SDS011;50327;51.328;12.324;2022-10-31T09:42:25;46.95;;;18.20;;
64075;SDS011;50327;51.328;12.324;2022-10-31T09:44:55;45.88;;;18.35;;
64075;SDS011;50327;51.328;12.324;2022-10-31T09:50:11;62.13;;;19.73;;
64075;SDS011;50327;51.328;12.324;2022-10-31T09:52:39;47.70;;;18.38;;
64075;SDS011;50327;51.328;12.324;2022-10-31T09:57:35;53.53;;;19.33;;
64075;SDS011;50327;51.328;12.324;2022-10-31T10:00:01;64.30;;;20.83;;
64075;SDS011;50327;51.328;12.324;2022-10-31T10:02:40;46.70;;;19.60;;
64075;SDS011;50327;51.328;12.324;2022-10-31T10:05:11;53.05;;;20.17;;
64075;SDS011;50327;51.328;12.324;2022-10-31T10:08:21;51.45;;;18.50;;
64075;SDS011;50327;51.328;12.324;2022-10-31T10:26:17;43.00;;;17.80;;
64075;SDS011;50327;51.328;12.324;2022-10-31T10:28:45;59.92;;;21.10;;
64075;SDS011;50327;51.328;12.324;2022-10-31T10:31:20;56.25;;;21.45;;
64075;SDS011;50327;51.328;12.324;2022-10-31T10:36:16;47.20;;;20.33;;
64075;SDS011;50327;51.328;12.324;2022-10-31T10:38:53;57.97;;;23.42;;
64075;SDS011;50327;51.328;12.324;2022-10-31T10:41:22;59.00;;;21.75;;
64075;SDS011;50327;51.328;12.324;2022-10-31T10:43:50;57.95;;;22.45;;
64075;SDS011;50327;51.328;12.324;2022-10-31T10:59:21;60.80;;;21.80;;
64075;SDS011;50327;51.328;12.324;2022-10-31T11:01:48;49.67;;;20.40;;
64075;SDS011;50327;51.328;12.324;2022-10-31T11:04:25;52.95;;;21.15;;
64075;SDS011;50327;51.328;12.324;2022-10-31T11:06:58;61.30;;;22.02;;
64075;SDS011;50327;51.328;12.324;2022-10-31T11:09:23;66.07;;;22.13;;
64075;SDS011;50327;51.328;12.324;2022-10-31T11:11:49;60.35;;;22.30;;
64075;SDS011;50327;51.328;12.324;2022-10-31T11:14:15;57.60;;;24.33;;
64075;SDS011;50327;51.328;12.324;2022-10-31T11:16:42;63.78;;;23.50;;
64075;SDS011;50327;51.328;12.324;2022-10-31T11:19:13;59.97;;;24.38;;
64075;SDS011;50327;51.328;12.324;2022-10-31T11:21:40;63.17;;;24.40;;
64075;SDS011;50327;51.328;12.324;2022-10-31T11:26:34;58.47;;;24.65;;
64075;SDS011;50327;51.328;12.324;2022-10-31T11:29:00;60.42;;;25.25;;
64075;SDS011;50327;51.328;12.324;2022-10-31T11:31:28;53.58;;;23.70;;
64075;SDS011;50327;51.328;12.324;2022-10-31T11:34:00;69.22;;;26.80;;
64075;SDS011;50327;51.328;12.324;2022-10-31T11:36:30;60.17;;;25.92;;
64075;SDS011;50327;51.328;12.324;2022-10-31T11:38:56;71.30;;;24.73;;
64075;SDS011;50327;51.328;12.324;2022-10-31T11:41:26;58.53;;;23.02;;
64075;SDS011;50327;51.328;12.324;2022-10-31T11:43:57;60.10;;;24.00;;
64075;SDS011;50327;51.328;12.324;2022-10-31T11:46:26;54.88;;;23.05;;
64075;SDS011;50327;51.328;12.324;2022-10-31T11:48:53;49.97;;;22.65;;
64075;SDS011;50327;51.328;12.324;2022-10-31T11:51:24;52.63;;;20.63;;
64075;SDS011;50327;51.328;12.324;2022-10-31T11:53:54;59.40;;;22.92;;
64075;SDS011;50327;51.328;12.324;2022-10-31T11:56:19;67.88;;;24.65;;
64075;SDS011;50327;51.328;12.324;2022-10-31T11:58:54;59.30;;;23.95;;
64075;SDS011;50327;51.328;12.324;2022-10-31T12:01:30;161.93;;;49.17;;
64075;SDS011;50327;51.328;12.324;2022-10-31T12:06:40;67.38;;;25.52;;
64075;SDS011;50327;51.328;12.324;2022-10-31T12:09:19;65.18;;;23.85;;
64075;SDS011;50327;51.328;12.324;2022-10-31T12:19:25;60.45;;;22.48;;
64075;SDS011;50327;51.328;12.324;2022-10-31T12:22:11;64.68;;;24.50;;
64075;SDS011;50327;51.328;12.324;2022-10-31T12:29:52;56.63;;;22.50;;
64075;SDS011;50327;51.328;12.324;2022-10-31T12:32:27;60.60;;;24.20;;
64075;SDS011;50327;51.328;12.324;2022-10-31T12:47:35;61.58;;;25.02;;
64075;SDS011;50327;51.328;12.324;2022-10-31T13:08:10;76.65;;;24.90;;
64075;SDS011;50327;51.328;12.324;2022-10-31T13:13:05;63.57;;;23.57;;
64075;SDS011;50327;51.328;12.324;2022-10-31T13:15:33;59.88;;;22.70;;
64075;SDS011;50327;51.328;12.324;2022-10-31T13:18:01;66.30;;;23.92;;
64075;SDS011;50327;51.328;12.324;2022-10-31T13:25:39;60.85;;;23.33;;
64075;SDS011;50327;51.328;12.324;2022-10-31T13:28:11;66.80;;;23.52;;
64075;SDS011;50327;51.328;12.324;2022-10-31T13:30:38;71.22;;;23.35;;
64075;SDS011;50327;51.328;12.324;2022-10-31T13:35:35;63.65;;;26.33;;
64075;SDS011;50327;51.328;12.324;2022-10-31T13:45:47;66.32;;;24.38;;
64075;SDS011;50327;51.328;12.324;2022-10-31T13:50:41;55.72;;;22.15;;
64075;SDS011;50327;51.328;12.324;2022-10-31T13:53:18;57.33;;;22.40;;
64075;SDS011;50327;51.328;12.324;2022-10-31T13:55:44;68.10;;;22.65;;
64075;SDS011;50327;51.328;12.324;2022-10-31T13:58:21;57.65;;;21.33;;
64075;SDS011;50327;51.328;12.324;2022-10-31T14:00:57;52.40;;;21.90;;
64075;SDS011;50327;51.328;12.324;2022-10-31T14:03:22;55.28;;;22.25;;
64075;SDS011;50327;51.328;12.324;2022-10-31T14:05:52;59.25;;;21.58;;
64075;SDS011;50327;51.328;12.324;2022-10-31T14:08:20;55.10;;;22.35;;
64075;SDS011;50327;51.328;12.324;2022-10-31T14:10:47;55.65;;;21.30;;
64075;SDS011;50327;51.328;12.324;2022-10-31T14:13:18;48.60;;;20.95;;
64075;SDS011;50327;51.328;12.324;2022-10-31T14:18:23;61.92;;;21.70;;
64075;SDS011;50327;51.328;12.324;2022-10-31T14:20:49;54.63;;;20.15;;
64075;SDS011;50327;51.328;12.324;2022-10-31T14:28:33;51.70;;;18.30;;
64075;SDS011;50327;51.328;12.324;2022-10-31T14:30:59;52.47;;;20.40;;
64075;SDS011;50327;51.328;12.324;2022-10-31T14:33:25;48.20;;;19.08;;
64075;SDS011;50327;51.328;12.324;2022-10-31T14:35:54;47.42;;;17.60;;
64075;SDS011;50327;51.328;12.324;2022-10-31T14:43:50;52.38;;;17.98;;
64075;SDS011;50327;51.328;12.324;2022-10-31T14:49:12;48.30;;;18.38;;
64075;SDS011;50327;51.328;12.324;2022-10-31T14:51:45;45.58;;;17.08;;
64075;SDS011;50327;51.328;12.324;2022-10-31T14:54:12;44.65;;;18.70;;
64075;SDS011;50327;51.328;12.324;2022-10-31T14:56:54;41.70;;;17.70;;
64075;SDS011;50327;51.328;12.324;2022-10-31T14:59:21;47.13;;;20.88;;
64075;SDS011;50327;51.328;12.324;2022-10-31T15:02:09;52.08;;;19.95;;
64075;SDS011;50327;51.328;12.324;2022-10-31T15:04:36;52.45;;;19.77;;
64075;SDS011;50327;51.328;12.324;2022-10-31T15:07:04;61.60;;;20.05;;
64075;SDS011;50327;51.328;12.324;2022-10-31T15:09:31;45.92;;;17.67;;
64075;SDS011;50327;51.328;12.324;2022-10-31T15:12:00;46.30;;;18.65;;
64075;SDS011;50327;51.328;12.324;2022-10-31T15:14:27;58.05;;;20.77;;
64075;SDS011;50327;51.328;12.324;2022-10-31T15:16:52;49.55;;;18.83;;
64075;SDS011;50327;51.328;12.324;2022-10-31T15:19:26;66.30;;;22.88;;
64075;SDS011;50327;51.328;12.324;2022-10-31T15:21:53;57.13;;;20.60;;
64075;SDS011;50327;51.328;12.324;2022-10-31T15:24:18;55.53;;;21.67;;
64075;SDS011;50327;51.328;12.324;2022-10-31T15:26:45;67.05;;;23.92;;
64075;SDS011;50327;51.328;12.324;2022-10-31T15:29:15;64.93;;;25.27;;
64075;SDS011;50327;51.328;12.324;2022-10-31T15:37:00;59.08;;;25.23;;
64075;SDS011;50327;51.328;12.324;2022-10-31T15:39:25;67.43;;;27.65;;
64075;SDS011;50327;51.328;12.324;2022-10-31T15:41:52;88.30;;;31.05;;
64075;SDS011;50327;51.328;12.324;2022-10-31T15:44:31;79.95;;;27.98;;
64075;SDS011;50327;51.328;12.324;2022-10-31T15:49:47;66.83;;;27.57;;
64075;SDS011;50327;51.328;12.324;2022-10-31T15:54:55;75.15;;;28.45;;
64075;SDS011;50327;51.328;12.324;2022-10-31T15:57:22;66.32;;;29.75;;
64075;SDS011;50327;51.328;12.324;2022-10-31T15:59:48;72.47;;;30.20;;
64075;SDS011;50327;51.328;12.324;2022-10-31T16:02:14;82.80;;;30.85;;
64075;SDS011;50327;51.328;12.324;2022-10-31T16:04:53;86.45;;;29.85;;
64075;SDS011;50327;51.328;12.324;2022-10-31T16:07:18;81.15;;;32.03;;
64075;SDS011;50327;51.328;12.324;2022-10-31T16:09:51;80.68;;;32.30;;
64075;SDS011;50327;51.328;12.324;2022-10-31T16:12:16;89.20;;;31.00;;
64075;SDS011;50327;51.328;12.324;2022-10-31T16:14:42;89.13;;;31.20;;
64075;SDS011;50327;51.328;12.324;2022-10-31T16:17:12;81.90;;;32.80;;
64075;SDS011;50327;51.328;12.324;2022-10-31T16:19:42;91.38;;;30.98;;
64075;SDS011;50327;51.328;12.324;2022-10-31T16:22:12;91.25;;;32.28;;
64075;SDS011;50327;51.328;12.324;2022-10-31T16:24:44;86.55;;;33.67;;
64075;SDS011;50327;51.328;12.324;2022-10-31T16:27:20;90.97;;;34.90;;
64075;SDS011;50327;51.328;12.324;2022-10-31T16:29:50;77.32;;;33.97;;
64075;SDS011;50327;51.328;12.324;2022-10-31T16:32:33;79.47;;;33.08;;
64075;SDS011;50327;51.328;12.324;2022-10-31T16:37:24;82.53;;;31.70;;
64075;SDS011;50327;51.328;12.324;2022-10-31T16:39:49;87.45;;;32.85;;
64075;SDS011;50327;51.328;12.324;2022-10-31T16:42:14;88.87;;;35.20;;
64075;SDS011;50327;51.328;12.324;2022-10-31T16:44:39;93.93;;;35.58;;
64075;SDS011;50327;51.328;12.324;2022-10-31T16:49:33;99.22;;;37.92;;
64075;SDS011;50327;51.328;12.324;2022-10-31T16:51:58;97.05;;;40.63;;
64075;SDS011;50327;51.328;12.324;2022-10-31T16:54:23;92.80;;;37.92;;
64075;SDS011;50327;51.328;12.324;2022-10-31T16:56:48;96.82;;;38.22;;
64075;SDS011;50327;51.328;12.324;2022-10-31T16:59:14;83.32;;;36.47;;